This is the latest recevied weather packets stored in our database for station/object AD5L. If no packets are shown the sender has not sent any weather packets the latest 10 day(s).
| Time | Temp. | Humidity | Pressure | Rain* | Wind** | Luminosity | Snow |
|---|---|---|---|---|---|---|---|
| 1777816414 | 18.33° C | 70% | 1023.2 hPa | 0 mm | - | - | - |
| 1777815806 | 17.78° C | 73% | 1023.2 hPa | 0 mm | - | - | - |
| 1777815219 | 17.22° C | 75% | 1022.9 hPa | 0 mm | - | - | - |
| 1777814610 | 16.67° C | 79% | 1022.9 hPa | 0 mm | - | - | - |
| 1777814021 | 15.56° C | 86% | 1023 hPa | 0 mm | - | - | - |
| 1777813410 | 15° C | 86% | 1023 hPa | 0 mm | - | - | - |
| 1777812822 | 13.33° C | 88% | 1022.8 hPa | 0 mm | - | - | - |
| 1777812211 | 12.78° C | 89% | 1022.7 hPa | 0 mm | - | - | - |
| 1777811622 | 12.22° C | 91% | 1022.8 hPa | 0 mm | - | - | - |
| 1777811012 | 11.67° C | 92% | 1022.6 hPa | 0 mm | - | - | - |
| 1777810423 | 10.56° C | 94% | 1022.5 hPa | 0 mm | - | - | - |
| 1777809806 | 10° C | 95% | 1022.4 hPa | 0 mm | - | - | - |
| 1777809227 | 9.44° C | 95% | 1022.1 hPa | 0 mm | - | - | - |
| 1777808609 | 9.44° C | 95% | 1022 hPa | 0 mm | - | - | - |
| 1777808013 | 9.44° C | 95% | 1022 hPa | 0 mm | - | - | - |
| 1777807404 | 9.44° C | 95% | 1021.9 hPa | 0 mm | - | - | - |
| 1777806814 | 9.44° C | 96% | 1021.8 hPa | 0 mm | - | - | - |
| 1777806202 | 9.44° C | 95% | 1021.7 hPa | 0 mm | - | - | - |
| 1777805614 | 9.44° C | 95% | 1021.6 hPa | 0 mm | - | - | - |
| 1777805003 | 9.44° C | 94% | 1021.7 hPa | 0 mm | - | - | - |
| 1777804413 | 10° C | 95% | 1021.6 hPa | 0 mm | - | - | - |
| 1777803806 | 10° C | 95% | 1021.4 hPa | 0 mm | - | - | - |
| 1777803217 | 10° C | 95% | 1021.5 hPa | 0 mm | - | - | - |
| 1777802609 | 10° C | 94% | 1021.5 hPa | 0 mm | - | - | - |
| 1777802015 | 10° C | 95% | 1021.4 hPa | 0 mm | - | - | - |
* Rain latest hour (hover to see other rain measurements)
** Current wind speed in m/s (hover to see current wind gust speed)